createdAt,value
2022-10-31T00:03:50.692Z,94.05
2022-10-31T00:09:12.702Z,94.25
2022-10-31T00:14:34.392Z,94.52
2022-10-31T00:19:56.126Z,93.95
2022-10-31T00:25:17.823Z,92.70
2022-10-31T00:30:39.535Z,91.97
2022-10-31T00:36:01.520Z,93.46
2022-10-31T00:41:23.186Z,94.60
2022-10-31T00:46:44.859Z,94.24
2022-10-31T00:52:06.553Z,94.14
2022-10-31T00:57:28.248Z,92.89
2022-10-31T01:02:50.122Z,92.84
2022-10-31T01:08:11.802Z,93.50
2022-10-31T01:13:34.284Z,94.74
2022-10-31T01:18:56.012Z,94.77
2022-10-31T01:24:17.708Z,94.79
2022-10-31T01:29:39.401Z,93.76
2022-10-31T01:35:01.121Z,92.76
2022-10-31T01:40:22.874Z,92.34
2022-10-31T01:45:50.884Z,93.06
2022-10-31T01:51:15.376Z,92.52
2022-10-31T01:56:42.212Z,93.66
2022-10-31T02:02:04.151Z,94.92
2022-10-31T02:07:38.303Z,95.41
2022-10-31T02:13:04.034Z,95.03
2022-10-31T02:18:28.852Z,95.42
2022-10-31T02:24:22.811Z,95.97
2022-10-31T02:30:25.998Z,97.38
2022-10-31T02:36:21.587Z,97.40
2022-10-31T02:42:35.716Z,96.51
2022-10-31T02:48:03.028Z,95.90
2022-10-31T02:53:25.139Z,94.72
2022-10-31T02:58:54.494Z,94.38
2022-10-31T03:04:58.156Z,94.23
2022-10-31T03:10:37.416Z,93.68
2022-10-31T03:16:09.291Z,94.42
2022-10-31T03:21:40.642Z,96.23
2022-10-31T03:27:04.510Z,97.00
2022-10-31T03:32:28.837Z,96.11
2022-10-31T03:37:53.794Z,95.89
2022-10-31T03:43:20.533Z,94.91
2022-10-31T03:48:42.333Z,94.13
2022-10-31T03:54:14.296Z,94.75
2022-10-31T03:59:42.021Z,94.02
2022-10-31T04:05:05.064Z,94.12
2022-10-31T04:10:32.011Z,94.95
2022-10-31T04:15:56.851Z,94.95
2022-10-31T04:21:18.704Z,94.59
2022-10-31T04:26:40.531Z,95.37
2022-10-31T04:32:02.285Z,94.79
2022-10-31T04:37:24.003Z,94.88
2022-10-31T04:42:45.746Z,95.25
2022-10-31T04:48:07.477Z,96.29
2022-10-31T04:53:29.712Z,98.12
2022-10-31T04:58:51.407Z,98.95
2022-10-31T05:04:13.174Z,99.41
2022-10-31T05:09:34.891Z,98.45
2022-10-31T05:14:56.631Z,97.73
2022-10-31T05:20:20.003Z,96.08
2022-10-31T05:25:41.893Z,97.57
2022-10-31T05:31:03.838Z,98.58
2022-10-31T05:36:25.579Z,96.72
2022-10-31T05:41:47.306Z,96.07
2022-10-31T05:47:09.090Z,95.34
2022-10-31T05:52:30.827Z,95.54
2022-10-31T05:57:53.648Z,96.42
2022-10-31T06:03:15.404Z,98.17
2022-10-31T06:08:37.532Z,99.40
2022-10-31T06:13:59.248Z,97.94
2022-10-31T06:19:20.969Z,97.12
2022-10-31T06:24:42.682Z,97.00
2022-10-31T06:30:04.919Z,95.98
2022-10-31T06:35:26.717Z,97.25
2022-10-31T06:40:48.467Z,97.62
2022-10-31T06:46:10.172Z,98.63
2022-10-31T06:51:31.890Z,99.14
2022-10-31T06:56:53.660Z,100.00
2022-10-31T07:02:15.527Z,99.54
2022-10-31T07:07:37.414Z,98.68
2022-10-31T07:13:01.391Z,98.15
2022-10-31T07:18:23.496Z,97.66
2022-10-31T07:23:48.516Z,97.58
2022-10-31T07:29:10.233Z,96.19
2022-10-31T07:34:32.002Z,95.66
2022-10-31T07:39:53.720Z,96.36
2022-10-31T07:45:17.925Z,96.08
2022-10-31T07:50:40.193Z,95.84
2022-10-31T07:56:01.907Z,96.07
2022-10-31T08:01:23.667Z,95.21
2022-10-31T08:06:46.483Z,95.53
2022-10-31T08:12:08.224Z,95.57
2022-10-31T08:17:30.635Z,95.71
2022-10-31T08:23:02.986Z,95.56
2022-10-31T08:28:24.788Z,94.59
2022-10-31T08:33:46.644Z,94.95
2022-10-31T08:39:08.491Z,93.90
2022-10-31T08:44:30.249Z,93.03
2022-10-31T08:49:52.082Z,92.31
2022-10-31T08:55:14.110Z,92.76
2022-10-31T09:00:36.512Z,92.77
2022-10-31T09:06:00.446Z,91.80
2022-10-31T09:11:22.257Z,91.07
2022-10-31T09:16:43.979Z,90.18
2022-10-31T09:22:05.679Z,90.46
2022-10-31T09:27:27.919Z,88.83
2022-10-31T09:32:56.199Z,88.96
2022-10-31T09:38:21.242Z,88.72
2022-10-31T09:44:20.633Z,88.82
2022-10-31T09:49:52.230Z,88.80
2022-10-31T09:55:19.012Z,88.20
2022-10-31T10:00:40.782Z,87.98
2022-10-31T10:06:24.298Z,88.39
2022-10-31T10:11:51.914Z,88.64
2022-10-31T10:17:35.230Z,86.86
2022-10-31T10:23:24.658Z,86.06
2022-10-31T10:28:56.718Z,85.58
2022-10-31T10:34:30.270Z,85.35
2022-10-31T10:39:57.735Z,85.06
2022-10-31T10:45:39.680Z,85.13
2022-10-31T10:51:02.496Z,85.08
2022-10-31T10:56:38.648Z,86.14
2022-10-31T11:02:01.131Z,85.78
2022-10-31T11:07:23.039Z,85.63
2022-10-31T11:13:03.051Z,84.55
2022-10-31T11:18:31.580Z,84.56
2022-10-31T11:24:11.636Z,84.91
2022-10-31T11:29:33.381Z,84.97
2022-10-31T11:35:01.386Z,84.44
2022-10-31T11:40:26.935Z,84.54
2022-10-31T11:45:48.838Z,84.19
2022-10-31T11:51:10.669Z,83.90
2022-10-31T11:56:41.054Z,84.06
2022-10-31T12:02:03.224Z,83.57
2022-10-31T12:07:25.407Z,83.58
2022-10-31T12:13:08.353Z,83.16
2022-10-31T12:18:39.194Z,83.03
2022-10-31T12:24:35.080Z,82.79
2022-10-31T12:30:15.588Z,82.37
2022-10-31T12:36:21.858Z,82.11
2022-10-31T12:42:10.925Z,81.68
2022-10-31T12:47:44.545Z,81.82
2022-10-31T12:53:48.407Z,82.22
2022-10-31T12:59:22.743Z,81.78
2022-10-31T13:04:58.154Z,81.84
2022-10-31T13:10:30.624Z,81.73
2022-10-31T13:15:58.236Z,81.76
2022-10-31T13:21:26.082Z,81.42
2022-10-31T13:26:53.301Z,81.43
2022-10-31T13:32:15.221Z,81.79
2022-10-31T13:37:45.412Z,82.57
2022-10-31T13:43:27.361Z,81.39
2022-10-31T13:48:49.143Z,79.85
2022-10-31T13:54:32.289Z,79.96
2022-10-31T13:59:59.146Z,80.49
2022-10-31T14:05:28.648Z,80.76
2022-10-31T14:10:56.862Z,80.98
2022-10-31T14:16:26.086Z,81.25
2022-10-31T14:21:49.221Z,81.58
2022-10-31T14:27:19.970Z,81.63
2022-10-31T14:32:44.037Z,83.26
2022-10-31T14:38:50.751Z,82.63
2022-10-31T14:44:18.515Z,83.81
2022-10-31T14:50:02.060Z,85.00
2022-10-31T14:55:25.538Z,85.91
2022-10-31T15:00:47.417Z,86.65
2022-10-31T15:06:14.657Z,87.25
2022-10-31T15:11:39.116Z,87.93
2022-10-31T15:17:05.183Z,88.38
2022-10-31T15:22:29.632Z,89.29
2022-10-31T15:27:53.076Z,89.99
2022-10-31T15:33:23.575Z,89.62
2022-10-31T15:38:45.681Z,89.82
2022-10-31T15:44:20.401Z,89.56
2022-10-31T15:49:49.917Z,89.33
2022-10-31T15:55:11.583Z,90.23
2022-10-31T16:00:35.849Z,90.71
2022-10-31T16:06:04.800Z,90.02
2022-10-31T16:11:39.963Z,89.78
2022-10-31T16:17:02.482Z,90.34
2022-10-31T16:22:38.781Z,90.73
2022-10-31T16:28:05.574Z,90.49
2022-10-31T16:33:37.091Z,90.58
2022-10-31T16:38:59.415Z,90.89
2022-10-31T16:44:26.468Z,92.39
2022-10-31T16:49:50.651Z,93.05
2022-10-31T16:55:16.582Z,92.70
2022-10-31T17:00:39.167Z,94.14
2022-10-31T17:06:00.902Z,93.72
2022-10-31T17:11:26.050Z,94.00
2022-10-31T17:16:47.870Z,94.65
2022-10-31T17:22:13.184Z,94.86
2022-10-31T17:27:34.928Z,94.66
2022-10-31T17:32:56.679Z,96.02
2022-10-31T17:38:18.412Z,97.21
2022-10-31T17:43:40.211Z,97.51
2022-10-31T17:49:02.019Z,98.36
2022-10-31T17:54:23.774Z,97.53
2022-10-31T17:59:45.523Z,96.88
2022-10-31T18:05:07.725Z,97.07
2022-10-31T18:10:29.468Z,99.50
2022-10-31T18:15:51.291Z,99.68
2022-10-31T18:21:13.084Z,99.64
2022-10-31T18:26:34.951Z,100.00
2022-10-31T18:31:56.714Z,100.00
2022-10-31T18:37:18.453Z,99.21
2022-10-31T18:42:40.212Z,97.96
2022-10-31T18:48:02.239Z,98.91
2022-10-31T18:53:24.655Z,98.91
2022-10-31T18:58:46.553Z,97.60
2022-10-31T19:04:10.591Z,99.62
2022-10-31T19:09:35.573Z,99.87
2022-10-31T19:14:57.310Z,100.00
2022-10-31T19:20:19.013Z,100.00
2022-10-31T19:25:40.916Z,100.00
2022-10-31T19:31:03.257Z,98.02
2022-10-31T19:36:25.044Z,98.19
2022-10-31T19:41:46.824Z,98.07
2022-10-31T19:47:08.522Z,95.86
2022-10-31T19:52:33.726Z,94.04
2022-10-31T19:58:01.815Z,94.25
2022-10-31T20:03:24.253Z,93.67
2022-10-31T20:08:46.070Z,92.36
2022-10-31T20:14:10.183Z,92.23
2022-10-31T20:19:32.027Z,92.08
2022-10-31T20:24:56.791Z,92.11
2022-10-31T20:30:18.626Z,92.15
2022-10-31T20:35:41.477Z,91.33
2022-10-31T20:41:05.180Z,92.14
2022-10-31T20:46:27.642Z,91.78
2022-10-31T20:51:49.448Z,91.82
2022-10-31T20:57:11.209Z,92.04
2022-10-31T21:02:33.980Z,93.15
2022-10-31T21:07:55.931Z,94.46
2022-10-31T21:13:18.267Z,93.60
2022-10-31T21:18:42.132Z,94.22
2022-10-31T21:24:12.218Z,94.99
2022-10-31T21:29:34.057Z,95.55
2022-10-31T21:34:55.830Z,95.40
2022-10-31T21:40:17.960Z,94.96
2022-10-31T21:45:39.718Z,96.03
2022-10-31T21:51:06.013Z,96.81
2022-10-31T21:56:28.264Z,96.84
2022-10-31T22:01:50.592Z,97.14
2022-10-31T22:07:12.475Z,97.64
2022-10-31T22:12:34.217Z,98.00
2022-10-31T22:17:55.981Z,98.03
2022-10-31T22:23:17.775Z,96.50
2022-10-31T22:28:40.600Z,97.32
2022-10-31T22:34:02.375Z,97.57
2022-10-31T22:39:24.111Z,97.71
2022-10-31T22:44:45.846Z,97.47
2022-10-31T22:50:07.921Z,98.31
2022-10-31T22:55:29.712Z,98.82
2022-10-31T23:00:51.544Z,97.31
2022-10-31T23:06:16.722Z,98.88
2022-10-31T23:11:39.901Z,99.48
2022-10-31T23:17:01.743Z,99.79
2022-10-31T23:22:23.469Z,98.80
2022-10-31T23:27:45.218Z,99.33
2022-10-31T23:33:07.548Z,99.56
2022-10-31T23:38:29.288Z,99.16
2022-10-31T23:43:51.010Z,98.06
2022-10-31T23:49:12.809Z,98.43
2022-10-31T23:54:34.824Z,97.92
2022-10-31T23:59:56.585Z,98.73
